Time;durP1;ratioP1;P1;durP2;ratioP2;P2;SDS_P1;SDS_P2;PMS_P1;PMS_P2;Temp;Humidity;BMP_temperature;BMP_pressure;BME280_temperature;BME280_humidity;BME280_pressure;Samples;Min_cycle;Max_cycle;Signal;HPM_P1;HPM_P2
2023/12/14 00:02:20;;;;;;;;;;;7.30;90.30;;;;;;5055875;28;19932;-76
2023/12/14 00:04:53;;;;;;;;;;;7.30;90.30;;;;;;5053213;28;20276;-73
2023/12/14 00:07:26;;;;;;;;;;;7.30;90.40;;;;;;5062478;28;19963;-77
2023/12/14 00:10:00;;;;;;;;;;;7.30;90.40;;;;;;5061914;28;19928;-74
2023/12/14 00:12:33;;;;;;;;;;;7.30;90.30;;;;;;5064111;28;19929;-75
2023/12/14 00:15:07;;;;;;;;;;;7.30;90.40;;;;;;5063126;28;20007;-76
2023/12/14 00:17:40;;;;;;;;;;;7.30;90.50;;;;;;5062266;28;19929;-74
2023/12/14 00:20:14;;;;;;;;;;;7.30;90.40;;;;;;5063480;28;19970;-76
2023/12/14 00:22:47;;;;;;;;;;;7.30;90.40;;;;;;5060481;28;19956;-76
2023/12/14 00:25:21;;;;;;;;;;;7.30;90.40;;;;;;5063745;28;19975;-74
2023/12/14 00:27:54;;;;;;;;;;;7.30;90.40;;;;;;5062713;28;19928;-74
2023/12/14 00:30:27;;;;;;;;;;;7.30;90.50;;;;;;5063654;28;19932;-73
2023/12/14 00:33:00;;;;;;;;;;;7.20;90.50;;;;;;5063674;28;19924;-73
2023/12/14 00:35:33;;;;;;;;;;;7.20;90.50;;;;;;5061867;28;19924;-77
2023/12/14 00:38:06;;;;;;;;;;;7.30;90.60;;;;;;5059638;28;20011;-77
2023/12/14 00:40:41;;;;;;;;;;;7.20;90.60;;;;;;5064528;28;20460;-74
2023/12/14 00:43:14;;;;;;;;;;;7.20;90.60;;;;;;5062994;28;19928;-75
2023/12/14 00:45:47;;;;;;;;;;;7.20;90.60;;;;;;5063695;28;20272;-76
2023/12/14 00:48:20;;;;;;;;;;;7.30;90.50;;;;;;5064435;28;19929;-74
2023/12/14 00:51:00;;;;;;;;;;;7.30;90.50;;;;;;5063486;28;19929;-76
2023/12/14 00:53:33;;;;;;;;;;;7.30;90.60;;;;;;5063471;28;19925;-75
2023/12/14 00:56:11;;;;;;;;;;;7.30;90.50;;;;;;5063735;28;19978;-73
2023/12/14 00:58:44;;;;;;;;;;;7.30;90.50;;;;;;5062463;28;19928;-74
2023/12/14 01:01:17;;;;;;;;;;;7.20;90.40;;;;;;5058480;28;19933;-75
2023/12/14 01:03:44;;;;;;;;;;;7.30;90.50;;;;;;5054852;28;19958;-74
2023/12/14 01:06:17;;;;;;;;;;;7.30;90.40;;;;;;5062875;28;19975;-75
2023/12/14 01:08:50;;;;;;;;;;;7.20;90.40;;;;;;5063525;28;19929;-73
2023/12/14 01:11:25;;;;;;;;;;;7.20;90.50;;;;;;5062654;28;19957;-72
2023/12/14 01:13:57;;;;;;;;;;;7.20;90.60;;;;;;5063346;28;19931;-76
2023/12/14 01:16:30;;;;;;;;;;;7.20;90.50;;;;;;5063545;28;20015;-74
2023/12/14 01:19:06;;;;;;;;;;;7.30;90.40;;;;;;5054303;28;19928;-74
2023/12/14 01:21:39;;;;;;;;;;;7.20;90.40;;;;;;5061066;28;19924;-75
2023/12/14 01:24:12;;;;;;;;;;;7.30;90.50;;;;;;5062618;28;19929;-76
2023/12/14 01:26:47;;;;;;;;;;;7.30;90.40;;;;;;5043190;28;19932;-74
2023/12/14 01:29:13;;;;;;;;;;;7.30;90.40;;;;;;5060977;28;19964;-62
2023/12/14 01:31:46;;;;;;;;;;;7.30;90.40;;;;;;5048011;28;19924;-61
2023/12/14 01:34:19;;;;;;;;;;;7.30;90.40;;;;;;5062742;28;20011;-60
2023/12/14 01:36:52;;;;;;;;;;;7.30;90.40;;;;;;5060377;28;19924;-63
2023/12/14 01:39:25;;;;;;;;;;;7.30;90.40;;;;;;5060073;28;19929;-62
2023/12/14 01:42:00;;;;;;;;;;;7.30;90.40;;;;;;5062009;28;19924;-62
2023/12/14 01:44:33;;;;;;;;;;;7.30;90.40;;;;;;5061869;28;19936;-62
2023/12/14 01:47:06;;;;;;;;;;;7.30;90.40;;;;;;5059591;28;20027;-62
2023/12/14 01:49:41;;;;;;;;;;;7.30;90.40;;;;;;5058534;28;19947;-62
2023/12/14 01:52:14;;;;;;;;;;;7.30;90.40;;;;;;5062793;28;19932;-61
2023/12/14 01:54:50;;;;;;;;;;;7.30;90.40;;;;;;5061156;28;19942;-61
2023/12/14 01:57:25;;;;;;;;;;;7.30;90.40;;;;;;5061009;28;19968;-60
2023/12/14 01:59:57;;;;;;;;;;;7.30;90.40;;;;;;5061311;28;19935;-61
2023/12/14 02:02:31;;;;;;;;;;;7.30;90.40;;;;;;5060121;28;20042;-62
2023/12/14 02:05:05;;;;;;;;;;;7.30;90.40;;;;;;5061839;28;19931;-61
2023/12/14 02:07:37;;;;;;;;;;;7.30;90.50;;;;;;5061262;28;19931;-61
2023/12/14 02:10:10;;;;;;;;;;;7.30;90.50;;;;;;5061179;28;20332;-61
2023/12/14 02:12:45;;;;;;;;;;;7.30;90.50;;;;;;5062520;28;20379;-62
2023/12/14 02:15:17;;;;;;;;;;;7.30;90.50;;;;;;5062430;28;19928;-62
2023/12/14 02:17:50;;;;;;;;;;;7.20;90.60;;;;;;5055042;28;19996;-62
2023/12/14 02:20:23;;;;;;;;;;;7.30;90.60;;;;;;5055586;28;19940;-62
2023/12/14 02:22:58;;;;;;;;;;;7.30;90.60;;;;;;5060550;28;20023;-62
2023/12/14 02:25:31;;;;;;;;;;;7.20;90.60;;;;;;5058817;28;20327;-60
2023/12/14 02:28:04;;;;;;;;;;;7.20;90.60;;;;;;5059340;28;19947;-62
2023/12/14 02:30:37;;;;;;;;;;;7.30;90.60;;;;;;5059929;28;19931;-60
2023/12/14 02:33:10;;;;;;;;;;;7.30;90.60;;;;;;5059607;28;19924;-61
2023/12/14 02:35:43;;;;;;;;;;;7.30;90.50;;;;;;5057618;28;19924;-60
2023/12/14 02:38:18;;;;;;;;;;;7.30;90.50;;;;;;5058998;28;19936;-61
2023/12/14 02:40:52;;;;;;;;;;;7.20;90.60;;;;;;5058209;28;19925;-63
2023/12/14 02:43:25;;;;;;;;;;;7.30;90.70;;;;;;5060971;28;19932;-62
2023/12/14 02:46:01;;;;;;;;;;;7.20;90.70;;;;;;5059344;28;19929;-63
2023/12/14 02:48:34;;;;;;;;;;;7.30;90.70;;;;;;5058399;28;20387;-61
2023/12/14 02:51:08;;;;;;;;;;;7.20;90.60;;;;;;5060946;28;19924;-62
2023/12/14 02:53:43;;;;;;;;;;;7.30;90.70;;;;;;5057445;28;20027;-63
2023/12/14 02:56:15;;;;;;;;;;;7.30;90.70;;;;;;5057075;28;19936;-63
2023/12/14 02:58:51;;;;;;;;;;;7.30;90.70;;;;;;5056159;28;19963;-62
2023/12/14 03:01:24;;;;;;;;;;;7.30;90.80;;;;;;5060886;28;20011;-63
2023/12/14 03:03:57;;;;;;;;;;;7.20;90.80;;;;;;5059862;28;19929;-62
2023/12/14 03:06:30;;;;;;;;;;;7.20;90.90;;;;;;5061384;28;19929;-63
2023/12/14 03:09:05;;;;;;;;;;;7.20;90.90;;;;;;5059663;28;19933;-61
2023/12/14 03:11:31;;;;;;;;;;;7.20;90.90;;;;;;5041500;28;19968;-63
2023/12/14 03:14:04;;;;;;;;;;;7.20;90.90;;;;;;5060484;28;20272;-62
2023/12/14 03:16:31;;;;;;;;;;;7.30;90.90;;;;;;5058480;28;19928;-63
2023/12/14 03:19:05;;;;;;;;;;;7.30;90.90;;;;;;5055835;28;20292;-63
2023/12/14 03:21:38;;;;;;;;;;;7.30;90.90;;;;;;5058637;28;20428;-63
2023/12/14 03:24:13;;;;;;;;;;;7.30;90.80;;;;;;5058933;28;20299;-62
2023/12/14 03:26:46;;;;;;;;;;;7.30;90.90;;;;;;5056637;28;19932;-63
2023/12/14 03:29:21;;;;;;;;;;;7.20;90.90;;;;;;5056084;28;19931;-64
2023/12/14 03:31:55;;;;;;;;;;;7.20;91.00;;;;;;5056306;28;19928;-64
2023/12/14 03:34:21;;;;;;;;;;;7.30;91.00;;;;;;5058022;28;19929;-63
2023/12/14 03:36:54;;;;;;;;;;;7.30;90.90;;;;;;5057008;28;19951;-62
2023/12/14 03:39:29;;;;;;;;;;;7.30;90.90;;;;;;5060074;28;19936;-63
2023/12/14 03:42:01;;;;;;;;;;;7.30;91.00;;;;;;5059395;28;20055;-63
2023/12/14 03:44:34;;;;;;;;;;;7.30;90.90;;;;;;5059210;28;19924;-64
2023/12/14 03:47:07;;;;;;;;;;;7.30;91.00;;;;;;5060094;28;20007;-62
2023/12/14 03:49:40;;;;;;;;;;;7.30;91.00;;;;;;5058390;28;19925;-62
2023/12/14 03:52:13;;;;;;;;;;;7.30;91.00;;;;;;5059491;28;19924;-63
2023/12/14 03:54:48;;;;;;;;;;;7.20;91.00;;;;;;5060897;28;20011;-62
2023/12/14 03:57:20;;;;;;;;;;;7.20;91.00;;;;;;5060517;28;19925;-62
2023/12/14 03:59:53;;;;;;;;;;;7.20;91.10;;;;;;5058118;28;19931;-63
2023/12/14 04:02:26;;;;;;;;;;;7.30;91.10;;;;;;5044411;28;20383;-62
2023/12/14 04:04:59;;;;;;;;;;;7.20;91.00;;;;;;5060000;28;20365;-63
2023/12/14 04:07:32;;;;;;;;;;;7.20;91.10;;;;;;5059835;28;19929;-62
2023/12/14 04:10:07;;;;;;;;;;;7.20;91.10;;;;;;5059152;28;19925;-63
2023/12/14 04:12:40;;;;;;;;;;;7.30;91.00;;;;;;5059768;28;20401;-64
2023/12/14 04:15:13;;;;;;;;;;;7.30;91.10;;;;;;5060467;28;19928;-63
2023/12/14 04:17:46;;;;;;;;;;;7.30;91.10;;;;;;5058933;28;19933;-64
2023/12/14 04:20:19;;;;;;;;;;;7.30;91.10;;;;;;5061450;28;19933;-63
2023/12/14 04:22:52;;;;;;;;;;;7.30;91.00;;;;;;5054943;28;19936;-63
2023/12/14 04:25:27;;;;;;;;;;;7.30;91.00;;;;;;5059351;28;19929;-63
2023/12/14 04:27:59;;;;;;;;;;;7.30;91.00;;;;;;5058029;28;19939;-63
2023/12/14 04:30:32;;;;;;;;;;;7.30;91.00;;;;;;5058074;28;20018;-62
2023/12/14 04:33:05;;;;;;;;;;;7.30;91.00;;;;;;5041666;28;19924;-63
2023/12/14 04:35:38;;;;;;;;;;;7.30;91.00;;;;;;5053768;28;20290;-63
2023/12/14 04:38:11;;;;;;;;;;;7.30;91.00;;;;;;5060402;28;19987;-62
2023/12/14 04:40:46;;;;;;;;;;;7.30;91.00;;;;;;5049934;28;19964;-62
2023/12/14 04:43:18;;;;;;;;;;;7.40;91.00;;;;;;5065136;28;19925;-63
2023/12/14 04:45:54;;;;;;;;;;;7.40;90.90;;;;;;5064358;28;19941;-63
2023/12/14 04:48:27;;;;;;;;;;;7.40;90.90;;;;;;5060691;28;19928;-62
2023/12/14 04:50:54;;;;;;;;;;;7.30;91.00;;;;;;5062493;28;19924;-63
2023/12/14 04:53:34;;;;;;;;;;;7.30;91.10;;;;;;5062389;28;19935;-63
2023/12/14 04:56:12;;;;;;;;;;;7.30;91.10;;;;;;5062070;28;20395;-62
2023/12/14 04:58:46;;;;;;;;;;;7.40;91.00;;;;;;5061791;28;19999;-64
2023/12/14 05:01:18;;;;;;;;;;;7.40;91.10;;;;;;5043276;28;20277;-59
2023/12/14 05:03:51;;;;;;;;;;;7.30;91.10;;;;;;5060267;28;19925;-60
2023/12/14 05:06:24;;;;;;;;;;;7.30;91.20;;;;;;5062646;28;19967;-59
2023/12/14 05:08:58;;;;;;;;;;;7.30;91.30;;;;;;5062648;28;20016;-60
2023/12/14 05:11:33;;;;;;;;;;;7.30;91.20;;;;;;5060875;28;19928;-59
2023/12/14 05:14:06;;;;;;;;;;;7.30;91.20;;;;;;5062462;28;20380;-59
2023/12/14 05:16:39;;;;;;;;;;;7.30;91.30;;;;;;5061317;28;20030;-58
2023/12/14 05:19:12;;;;;;;;;;;7.30;91.20;;;;;;5060452;28;19978;-60
2023/12/14 05:21:45;;;;;;;;;;;7.40;91.20;;;;;;5063186;28;19935;-59
2023/12/14 05:24:18;;;;;;;;;;;7.30;91.20;;;;;;5065142;28;19936;-59
2023/12/14 05:26:53;;;;;;;;;;;7.40;91.20;;;;;;5062674;28;20019;-61
2023/12/14 05:29:28;;;;;;;;;;;7.40;91.20;;;;;;5065515;28;19929;-58
2023/12/14 05:32:01;;;;;;;;;;;7.30;91.20;;;;;;5060195;28;19963;-59
2023/12/14 05:34:34;;;;;;;;;;;7.40;91.20;;;;;;5062598;28;19970;-59
2023/12/14 05:37:07;;;;;;;;;;;7.40;91.30;;;;;;5059938;28;19933;-60
2023/12/14 05:39:41;;;;;;;;;;;7.40;91.30;;;;;;5062896;28;19928;-60
2023/12/14 05:42:18;;;;;;;;;;;7.40;91.20;;;;;;5063772;28;19932;-58
2023/12/14 05:44:51;;;;;;;;;;;7.40;91.20;;;;;;5061422;28;19928;-59
2023/12/14 05:47:26;;;;;;;;;;;7.40;91.10;;;;;;5059898;28;20399;-58
2023/12/14 05:50:00;;;;;;;;;;;7.40;91.30;;;;;;5061303;28;19924;-59
2023/12/14 05:52:32;;;;;;;;;;;7.30;91.30;;;;;;5059336;28;20394;-59
2023/12/14 05:54:59;;;;;;;;;;;7.40;91.40;;;;;;5062450;28;19968;-59
2023/12/14 05:57:34;;;;;;;;;;;7.30;91.40;;;;;;5062337;28;19929;-59
2023/12/14 06:00:08;;;;;;;;;;;7.40;91.20;;;;;;5062996;28;19933;-59
2023/12/14 06:02:41;;;;;;;;;;;7.40;91.40;;;;;;5058812;28;19924;-58
2023/12/14 06:05:15;;;;;;;;;;;7.40;91.40;;;;;;5062269;28;20383;-60
2023/12/14 06:07:47;;;;;;;;;;;7.40;91.40;;;;;;5061292;28;20382;-60
2023/12/14 06:10:21;;;;;;;;;;;7.40;91.50;;;;;;5060965;28;19925;-62
2023/12/14 06:12:56;;;;;;;;;;;7.40;91.40;;;;;;5050158;28;20288;-62
2023/12/14 06:15:28;;;;;;;;;;;7.40;91.40;;;;;;5062369;28;19924;-62
2023/12/14 06:18:01;;;;;;;;;;;7.40;91.30;;;;;;5060989;28;19997;-62
2023/12/14 06:20:34;;;;;;;;;;;7.40;91.40;;;;;;5060558;28;20047;-62
2023/12/14 06:23:07;;;;;;;;;;;7.40;91.40;;;;;;5043286;28;19960;-61
2023/12/14 06:25:40;;;;;;;;;;;7.40;91.40;;;;;;5061556;28;19925;-62
2023/12/14 06:28:15;;;;;;;;;;;7.40;91.50;;;;;;5059835;28;19939;-61
2023/12/14 06:30:47;;;;;;;;;;;7.40;91.40;;;;;;5061631;28;19933;-62
2023/12/14 06:33:20;;;;;;;;;;;7.40;91.40;;;;;;5055004;28;19932;-62
2023/12/14 06:35:53;;;;;;;;;;;7.40;91.50;;;;;;5058932;28;19975;-62
2023/12/14 06:38:26;;;;;;;;;;;7.40;91.40;;;;;;5060106;28;20363;-63
2023/12/14 06:40:59;;;;;;;;;;;7.30;91.40;;;;;;5061207;28;20060;-61
2023/12/14 06:43:34;;;;;;;;;;;7.30;91.40;;;;;;5061050;28;19929;-63
2023/12/14 06:46:08;;;;;;;;;;;7.40;91.40;;;;;;5042832;28;20362;-61
2023/12/14 06:48:43;;;;;;;;;;;7.40;91.40;;;;;;5060625;28;20282;-61
2023/12/14 06:51:16;;;;;;;;;;;7.40;91.40;;;;;;5061269;28;19924;-63
2023/12/14 06:53:49;;;;;;;;;;;7.40;91.50;;;;;;5059441;28;20010;-62
2023/12/14 06:56:22;;;;;;;;;;;7.40;91.50;;;;;;5058895;28;19931;-62
2023/12/14 06:58:57;;;;;;;;;;;7.40;91.50;;;;;;5060642;28;20386;-62
2023/12/14 07:01:30;;;;;;;;;;;7.40;91.50;;;;;;5060100;28;19944;-61
2023/12/14 07:04:03;;;;;;;;;;;7.40;91.60;;;;;;5059849;28;20379;-61
2023/12/14 07:06:37;;;;;;;;;;;7.30;91.50;;;;;;5059146;28;19928;-62
2023/12/14 07:09:09;;;;;;;;;;;7.40;91.50;;;;;;5061090;28;19925;-62
2023/12/14 07:11:42;;;;;;;;;;;7.40;91.40;;;;;;5057545;28;19931;-62
2023/12/14 07:14:17;;;;;;;;;;;7.40;91.40;;;;;;5061866;28;19932;-62
2023/12/14 07:16:44;;;;;;;;;;;7.40;91.30;;;;;;5059432;28;19968;-61
2023/12/14 07:19:17;;;;;;;;;;;7.40;91.30;;;;;;5059910;28;19970;-71
2023/12/14 07:21:53;;;;;;;;;;;7.40;91.30;;;;;;5059006;28;19974;-70
2023/12/14 07:24:27;;;;;;;;;;;7.40;91.30;;;;;;5060751;28;19990;-70
2023/12/14 07:26:59;;;;;;;;;;;7.50;91.30;;;;;;5057603;28;19933;-71
2023/12/14 07:29:34;;;;;;;;;;;7.50;91.30;;;;;;5056221;28;19928;-71
2023/12/14 07:32:07;;;;;;;;;;;7.50;91.20;;;;;;5059926;28;20399;-70
2023/12/14 07:34:40;;;;;;;;;;;7.50;91.20;;;;;;5059772;28;19924;-71
2023/12/14 07:37:13;;;;;;;;;;;7.50;91.20;;;;;;5059285;28;20044;-71
2023/12/14 07:39:46;;;;;;;;;;;7.50;91.30;;;;;;5057531;28;19928;-71
2023/12/14 07:42:20;;;;;;;;;;;7.50;91.20;;;;;;5047567;28;20020;-71
2023/12/14 07:44:55;;;;;;;;;;;7.50;91.20;;;;;;5059946;28;19936;-70
2023/12/14 07:47:28;;;;;;;;;;;7.50;91.20;;;;;;5060055;28;20443;-70
2023/12/14 07:50:01;;;;;;;;;;;7.50;91.30;;;;;;5060231;28;19974;-70
2023/12/14 07:52:34;;;;;;;;;;;7.50;91.30;;;;;;5056337;28;19932;-71
2023/12/14 07:55:08;;;;;;;;;;;7.50;91.30;;;;;;5060432;28;19932;-71
2023/12/14 07:57:41;;;;;;;;;;;7.50;91.30;;;;;;5057348;28;20004;-69
2023/12/14 08:00:19;;;;;;;;;;;7.40;91.40;;;;;;5059976;28;20027;-70
2023/12/14 08:02:52;;;;;;;;;;;7.40;91.50;;;;;;5059031;28;19924;-71
2023/12/14 08:05:25;;;;;;;;;;;7.50;91.40;;;;;;5059033;28;19929;-71
2023/12/14 08:07:59;;;;;;;;;;;7.40;91.40;;;;;;5059734;28;19925;-70
2023/12/14 08:10:33;;;;;;;;;;;7.40;91.40;;;;;;5059058;28;19968;-71
2023/12/14 08:13:05;;;;;;;;;;;7.40;91.40;;;;;;5058488;28;19983;-70
2023/12/14 08:15:40;;;;;;;;;;;7.40;91.50;;;;;;5060046;28;20383;-70
2023/12/14 08:18:13;;;;;;;;;;;7.40;91.40;;;;;;5055883;28;19931;-70
2023/12/14 08:20:46;;;;;;;;;;;7.40;91.40;;;;;;5061383;28;19924;-69
2023/12/14 08:23:19;;;;;;;;;;;7.50;91.40;;;;;;5055935;28;20015;-69
2023/12/14 08:25:53;;;;;;;;;;;7.40;91.30;;;;;;5062577;28;19939;-70
2023/12/14 08:28:19;;;;;;;;;;;7.40;91.30;;;;;;5065387;28;19931;-70
2023/12/14 08:30:54;;;;;;;;;;;7.40;91.30;;;;;;5064726;28;20375;-64
2023/12/14 08:33:29;;;;;;;;;;;7.40;91.30;;;;;;5064683;28;19933;-64
2023/12/14 08:36:06;;;;;;;;;;;7.40;91.30;;;;;;5046740;28;20893;-64
2023/12/14 08:38:38;;;;;;;;;;;7.40;91.40;;;;;;5063619;28;19933;-65
2023/12/14 08:41:13;;;;;;;;;;;7.40;91.30;;;;;;5048114;28;19924;-64
2023/12/14 08:43:45;;;;;;;;;;;7.50;91.30;;;;;;5056146;28;19938;-65
2023/12/14 08:46:20;;;;;;;;;;;7.50;91.30;;;;;;5062687;28;19938;-64
2023/12/14 08:48:53;;;;;;;;;;;7.50;91.30;;;;;;5060761;28;19936;-64
2023/12/14 08:51:26;;;;;;;;;;;7.50;91.30;;;;;;5063391;28;19939;-65
2023/12/14 08:53:59;;;;;;;;;;;7.50;91.20;;;;;;5064038;28;19925;-64
2023/12/14 08:56:33;;;;;;;;;;;7.50;91.20;;;;;;5063328;28;19939;-65
2023/12/14 08:59:07;;;;;;;;;;;7.50;91.10;;;;;;5063699;28;20014;-64
2023/12/14 09:01:42;;;;;;;;;;;7.60;91.10;;;;;;5062574;28;19925;-66
2023/12/14 09:04:15;;;;;;;;;;;7.60;91.10;;;;;;5059571;28;20376;-64
2023/12/14 09:06:52;;;;;;;;;;;7.60;91.00;;;;;;5060369;28;19997;-64
2023/12/14 09:09:28;;;;;;;;;;;7.70;90.90;;;;;;5062802;28;20035;-65
2023/12/14 09:12:01;;;;;;;;;;;7.70;91.00;;;;;;5062921;28;19928;-65
2023/12/14 09:14:41;;;;;;;;;;;7.60;91.10;;;;;;5058505;28;21049;-64
2023/12/14 09:17:16;;;;;;;;;;;7.70;91.00;;;;;;5062725;28;19925;-65
2023/12/14 09:19:52;;;;;;;;;;;7.60;91.00;;;;;;5061622;28;19932;-64
2023/12/14 09:22:25;;;;;;;;;;;7.70;91.10;;;;;;5049863;28;19925;-65
2023/12/14 09:25:09;;;;;;;;;;;7.60;91.10;;;;;;5063741;28;20363;-63
2023/12/14 09:27:41;;;;;;;;;;;7.60;91.10;;;;;;5062326;28;19928;-65
2023/12/14 09:30:17;;;;;;;;;;;7.60;91.10;;;;;;5065250;28;19925;-65
2023/12/14 09:32:51;;;;;;;;;;;7.60;91.10;;;;;;5062205;28;19933;-64
2023/12/14 09:35:24;;;;;;;;;;;7.60;91.00;;;;;;5057033;28;19929;-67
2023/12/14 09:37:57;;;;;;;;;;;7.70;91.00;;;;;;5059571;28;19928;-65
2023/12/14 09:40:37;;;;;;;;;;;7.60;91.00;;;;;;5061513;28;19960;-62
2023/12/14 09:43:11;;;;;;;;;;;7.60;91.10;;;;;;5065508;28;20390;-63
2023/12/14 09:45:45;;;;;;;;;;;7.60;91.10;;;;;;5063507;28;20302;-61
2023/12/14 09:48:20;;;;;;;;;;;7.70;91.10;;;;;;5056906;28;19925;-62
2023/12/14 09:50:52;;;;;;;;;;;7.60;91.00;;;;;;5058900;28;19932;-62
2023/12/14 09:53:26;;;;;;;;;;;7.60;91.10;;;;;;5062928;28;19955;-62
2023/12/14 09:55:58;;;;;;;;;;;7.60;91.10;;;;;;5057141;28;19938;-63
2023/12/14 09:58:32;;;;;;;;;;;7.70;91.10;;;;;;5061305;28;19925;-62
2023/12/14 10:01:20;;;;;;;;;;;7.60;91.10;;;;;;5042247;28;19925;-63
2023/12/14 10:04:07;;;;;;;;;;;7.60;91.10;;;;;;5061026;28;19938;-61
2023/12/14 10:06:42;;;;;;;;;;;7.60;91.20;;;;;;5061132;28;19960;-63
2023/12/14 10:09:18;;;;;;;;;;;7.60;91.20;;;;;;5061358;28;20334;-63
2023/12/14 10:12:05;;;;;;;;;;;7.60;91.20;;;;;;5062511;28;19928;-61
2023/12/14 10:14:39;;;;;;;;;;;7.60;91.20;;;;;;5062644;28;19930;-63
2023/12/14 10:17:14;;;;;;;;;;;7.60;91.20;;;;;;5061719;28;19931;-63
2023/12/14 10:19:49;;;;;;;;;;;7.60;91.20;;;;;;5059185;28;19925;-62
2023/12/14 10:22:22;;;;;;;;;;;7.60;91.20;;;;;;5062932;28;19924;-63
2023/12/14 10:24:57;;;;;;;;;;;7.60;91.20;;;;;;5061357;28;19994;-62
2023/12/14 10:27:32;;;;;;;;;;;7.60;91.20;;;;;;5060581;28;19939;-63
2023/12/14 10:30:05;;;;;;;;;;;7.70;91.20;;;;;;5062453;28;20008;-61
2023/12/14 10:32:40;;;;;;;;;;;7.70;91.10;;;;;;5060836;28;20013;-63
2023/12/14 10:35:16;;;;;;;;;;;7.70;91.10;;;;;;5058261;28;19931;-63
2023/12/14 10:37:50;;;;;;;;;;;7.70;91.00;;;;;;5060873;28;19929;-63
2023/12/14 10:40:20;;;;;;;;;;;7.70;91.00;;;;;;5062977;28;19925;-62
2023/12/14 10:42:55;;;;;;;;;;;7.70;91.00;;;;;;5060872;28;19964;-63
2023/12/14 10:45:30;;;;;;;;;;;7.70;90.80;;;;;;5060733;28;19925;-62
2023/12/14 10:48:04;;;;;;;;;;;7.70;90.90;;;;;;5061577;28;19932;-62
2023/12/14 10:50:39;;;;;;;;;;;7.70;90.70;;;;;;5054764;28;20023;-61
2023/12/14 10:53:13;;;;;;;;;;;7.70;90.70;;;;;;5061074;28;20433;-59
2023/12/14 10:55:46;;;;;;;;;;;7.80;90.60;;;;;;5042750;28;20830;-59
2023/12/14 10:58:20;;;;;;;;;;;7.70;90.50;;;;;;5059649;28;19928;-58
2023/12/14 11:00:59;;;;;;;;;;;7.70;90.60;;;;;;5054567;28;20328;-59
2023/12/14 11:03:33;;;;;;;;;;;7.80;90.50;;;;;;5059083;28;19925;-58
2023/12/14 11:06:20;;;;;;;;;;;7.80;90.40;;;;;;5060392;28;19924;-60
2023/12/14 11:08:54;;;;;;;;;;;7.80;90.40;;;;;;5060179;28;19956;-60
2023/12/14 11:11:30;;;;;;;;;;;7.80;90.40;;;;;;5061768;28;19931;-60
2023/12/14 11:14:04;;;;;;;;;;;7.90;90.40;;;;;;5059291;28;19929;-59
2023/12/14 11:16:44;;;;;;;;;;;7.90;90.30;;;;;;5059627;28;19956;-60
2023/12/14 11:20:25;;;;;;;;;;;7.90;90.20;;;;;;5054413;27;19925;-60
2023/12/14 11:23:08;;;;;;;;;;;7.80;90.20;;;;;;5044238;28;19929;-60
2023/12/14 11:25:42;;;;;;;;;;;7.80;90.20;;;;;;5043117;28;19925;-60
2023/12/14 11:28:08;;;;;;;;;;;7.90;90.10;;;;;;5045657;28;20311;-59
2023/12/14 11:30:44;;;;;;;;;;;7.90;90.20;;;;;;5046061;28;19925;-58
2023/12/14 11:33:17;;;;;;;;;;;7.90;90.10;;;;;;5063690;28;19928;-59
2023/12/14 11:35:53;;;;;;;;;;;8.00;90.10;;;;;;5060951;28;19933;-60
2023/12/14 11:38:26;;;;;;;;;;;8.00;90.00;;;;;;5069245;28;19986;-58
2023/12/14 11:41:03;;;;;;;;;;;8.00;89.80;;;;;;5070132;28;19925;-61
2023/12/14 11:43:42;;;;;;;;;;;8.00;89.90;;;;;;5061864;28;19929;-58
2023/12/14 11:46:15;;;;;;;;;;;8.10;89.90;;;;;;5063550;28;19925;-61
2023/12/14 11:48:44;;;;;;;;;;;8.10;89.70;;;;;;5062791;28;19929;-60
2023/12/14 11:51:19;;;;;;;;;;;8.10;89.80;;;;;;5062753;28;19940;-59
2023/12/14 11:53:52;;;;;;;;;;;8.10;89.80;;;;;;5062020;28;19986;-58
2023/12/14 11:56:25;;;;;;;;;;;8.10;89.90;;;;;;5061352;28;19936;-59
2023/12/14 11:58:58;;;;;;;;;;;8.00;89.90;;;;;;5062042;28;20012;-60
2023/12/14 12:01:33;;;;;;;;;;;8.00;90.00;;;;;;5061731;28;19928;-58
2023/12/14 12:04:11;;;;;;;;;;;8.00;90.00;;;;;;5062269;28;19932;-59
2023/12/14 12:06:45;;;;;;;;;;;8.00;90.00;;;;;;5057295;28;19928;-60
2023/12/14 12:09:32;;;;;;;;;;;8.00;90.00;;;;;;5062498;28;19968;-60
2023/12/14 12:12:06;;;;;;;;;;;8.00;89.90;;;;;;5060862;28;19942;-60
2023/12/14 12:14:40;;;;;;;;;;;8.00;89.90;;;;;;5060437;28;19934;-60
2023/12/14 12:17:14;;;;;;;;;;;8.00;89.90;;;;;;5062414;28;20389;-61
2023/12/14 12:19:47;;;;;;;;;;;8.00;89.90;;;;;;5082722;28;19924;-59
2023/12/14 12:22:22;;;;;;;;;;;8.00;89.90;;;;;;5076176;28;19925;-60
2023/12/14 12:24:54;;;;;;;;;;;8.10;89.80;;;;;;5084258;28;19951;-61
2023/12/14 12:27:28;;;;;;;;;;;8.10;89.70;;;;;;5084265;28;19932;-59
2023/12/14 12:29:54;;;;;;;;;;;8.20;89.60;;;;;;5071006;28;19928;-59
2023/12/14 12:32:31;;;;;;;;;;;8.20;89.40;;;;;;5071615;28;19924;-60
2023/12/14 12:35:04;;;;;;;;;;;8.20;89.40;;;;;;5067206;28;19929;-60
2023/12/14 12:37:38;;;;;;;;;;;8.20;89.00;;;;;;5065109;28;19967;-62
2023/12/14 12:40:11;;;;;;;;;;;8.20;89.00;;;;;;5069379;28;19928;-60
2023/12/14 12:42:45;;;;;;;;;;;8.20;89.00;;;;;;5068600;28;19974;-59
2023/12/14 12:45:18;;;;;;;;;;;8.20;88.80;;;;;;5068671;28;19932;-60
2023/12/14 12:47:50;;;;;;;;;;;8.10;88.80;;;;;;5069752;28;19969;-60
2023/12/14 12:50:24;;;;;;;;;;;8.10;88.90;;;;;;5069158;28;20007;-60
2023/12/14 12:52:58;;;;;;;;;;;8.10;88.70;;;;;;5068331;28;19978;-60
2023/12/14 12:55:29;;;;;;;;;;;8.20;88.80;;;;;;5070570;28;19933;-61
2023/12/14 12:57:57;;;;;;;;;;;8.10;88.70;;;;;;5067547;28;19932;-61
2023/12/14 13:00:30;;;;;;;;;;;8.20;88.80;;;;;;5068172;28;19935;-60
2023/12/14 13:03:03;;;;;;;;;;;8.20;88.70;;;;;;5068494;28;19970;-59
2023/12/14 13:05:36;;;;;;;;;;;8.20;88.60;;;;;;5069693;28;19931;-61
2023/12/14 13:08:11;;;;;;;;;;;8.10;88.40;;;;;;5069428;28;19956;-60
2023/12/14 13:10:39;;;;;;;;;;;8.20;88.70;;;;;;5069124;28;19928;-63
2023/12/14 13:13:12;;;;;;;;;;;8.20;88.50;;;;;;5069907;28;19993;-62
2023/12/14 13:15:45;;;;;;;;;;;8.20;88.50;;;;;;5068564;28;20694;-61
2023/12/14 13:18:18;;;;;;;;;;;8.20;88.50;;;;;;5069598;28;19929;-62
2023/12/14 13:20:51;;;;;;;;;;;8.20;88.50;;;;;;5068056;28;19929;-61
2023/12/14 13:23:26;;;;;;;;;;;8.20;88.30;;;;;;5068992;28;19932;-62
2023/12/14 13:25:58;;;;;;;;;;;8.20;88.30;;;;;;5066413;28;19924;-61
2023/12/14 13:28:31;;;;;;;;;;;8.20;88.40;;;;;;5068028;28;19925;-62
2023/12/14 13:31:06;;;;;;;;;;;8.20;88.40;;;;;;5069078;28;19924;-61
2023/12/14 13:33:38;;;;;;;;;;;8.20;88.50;;;;;;5067425;28;20017;-61
2023/12/14 13:36:11;;;;;;;;;;;8.20;88.50;;;;;;5065945;28;19935;-62
2023/12/14 13:38:47;;;;;;;;;;;8.20;88.30;;;;;;5069808;28;20011;-62
2023/12/14 13:41:19;;;;;;;;;;;8.20;88.40;;;;;;5061667;28;19929;-62
2023/12/14 13:43:52;;;;;;;;;;;8.20;88.30;;;;;;5046723;28;19925;-62
2023/12/14 13:46:25;;;;;;;;;;;8.20;88.30;;;;;;5049138;28;19956;-61
2023/12/14 13:48:58;;;;;;;;;;;8.20;88.20;;;;;;5047297;28;20002;-61
2023/12/14 13:51:32;;;;;;;;;;;8.10;88.10;;;;;;5047255;28;19931;-62
2023/12/14 13:54:06;;;;;;;;;;;8.10;88.20;;;;;;5045211;28;19960;-61
2023/12/14 13:56:40;;;;;;;;;;;8.10;88.00;;;;;;5047054;28;19960;-61
2023/12/14 13:59:12;;;;;;;;;;;8.10;88.00;;;;;;5047824;28;19968;-62
2023/12/14 14:01:46;;;;;;;;;;;8.10;88.00;;;;;;5047010;28;20419;-62
2023/12/14 14:04:25;;;;;;;;;;;8.10;87.90;;;;;;5052479;28;20402;-62
2023/12/14 14:06:58;;;;;;;;;;;8.10;88.00;;;;;;5066181;28;19929;-62
2023/12/14 14:09:33;;;;;;;;;;;8.10;87.90;;;;;;5066918;28;19925;-62
2023/12/14 14:12:07;;;;;;;;;;;8.10;87.70;;;;;;5067877;28;19924;-61
2023/12/14 14:14:39;;;;;;;;;;;8.10;87.70;;;;;;5065465;28;19925;-62
2023/12/14 14:17:13;;;;;;;;;;;8.00;87.60;;;;;;5045423;28;20008;-60
2023/12/14 14:19:45;;;;;;;;;;;8.00;87.60;;;;;;5045492;28;20016;-71
2023/12/14 14:22:18;;;;;;;;;;;8.00;87.60;;;;;;5047191;28;20359;-71
2023/12/14 14:24:53;;;;;;;;;;;8.00;87.60;;;;;;5047549;28;20401;-71
2023/12/14 14:27:25;;;;;;;;;;;7.90;87.70;;;;;;5045705;28;20415;-69
2023/12/14 14:30:02;;;;;;;;;;;7.90;87.80;;;;;;5046343;28;19929;-71
2023/12/14 14:32:37;;;;;;;;;;;7.90;87.80;;;;;;5044864;28;19935;-71
2023/12/14 14:35:10;;;;;;;;;;;7.90;87.80;;;;;;5045406;28;20382;-71
2023/12/14 14:37:45;;;;;;;;;;;7.90;87.90;;;;;;5047038;28;20417;-69
2023/12/14 14:40:21;;;;;;;;;;;7.90;88.00;;;;;;5047601;28;19968;-70
2023/12/14 14:42:54;;;;;;;;;;;7.80;88.10;;;;;;5046039;28;20299;-69
2023/12/14 14:45:27;;;;;;;;;;;7.90;88.20;;;;;;5048807;28;19928;-73
2023/12/14 14:48:01;;;;;;;;;;;7.90;88.10;;;;;;5048335;28;19928;-71
2023/12/14 14:50:33;;;;;;;;;;;7.90;88.20;;;;;;5048021;28;19979;-70
2023/12/14 14:53:07;;;;;;;;;;;7.80;88.20;;;;;;5046332;28;19932;-70
2023/12/14 14:55:41;;;;;;;;;;;7.80;88.20;;;;;;5047674;28;19925;-70
2023/12/14 14:58:14;;;;;;;;;;;7.80;88.30;;;;;;5047530;28;19929;-71
2023/12/14 15:00:48;;;;;;;;;;;7.80;88.30;;;;;;5047055;28;19951;-70
2023/12/14 15:03:21;;;;;;;;;;;7.80;88.30;;;;;;5049557;28;19929;-71
2023/12/14 15:05:55;;;;;;;;;;;7.80;88.30;;;;;;5051068;28;19925;-72
2023/12/14 15:08:28;;;;;;;;;;;7.80;88.30;;;;;;5049019;28;19935;-72
2023/12/14 15:11:02;;;;;;;;;;;7.80;88.40;;;;;;5042806;28;20963;-71